createdAt,value
2022-09-07T00:01:10.633Z,25.85
2022-09-07T00:03:38.157Z,23.50
2022-09-07T00:06:09.568Z,26.85
2022-09-07T00:08:39.764Z,24.85
2022-09-07T00:11:13.884Z,26.90
2022-09-07T00:13:44.142Z,24.58
2022-09-07T00:16:25.105Z,20.25
2022-09-07T00:18:55.740Z,19.48
2022-09-07T00:21:24.339Z,21.55
2022-09-07T00:23:52.892Z,23.25
2022-09-07T00:26:30.368Z,22.15
2022-09-07T00:29:03.984Z,20.17
2022-09-07T00:31:32.482Z,22.75
2022-09-07T00:34:02.109Z,22.33
2022-09-07T00:36:29.929Z,25.30
2022-09-07T00:38:58.395Z,26.23
2022-09-07T00:41:25.871Z,25.67
2022-09-07T00:44:43.981Z,28.92
2022-09-07T00:47:32.623Z,27.15
2022-09-07T00:50:10.450Z,28.65
2022-09-07T00:52:39.710Z,28.30
2022-09-07T00:55:12.583Z,28.15
2022-09-07T00:57:46.932Z,27.92
2022-09-07T01:00:14.354Z,26.67
2022-09-07T01:02:42.021Z,28.73
2022-09-07T01:05:42.689Z,28.13
2022-09-07T01:08:12.115Z,27.90
2022-09-07T01:10:40.365Z,30.58
2022-09-07T01:13:08.439Z,33.72
2022-09-07T01:15:54.179Z,29.38
2022-09-07T01:22:04.273Z,32.50
2022-09-07T01:25:16.821Z,28.73
2022-09-07T01:28:42.188Z,29.80
2022-09-07T01:31:43.529Z,34.65
2022-09-07T01:34:23.881Z,32.92
2022-09-07T01:37:38.897Z,43.97
2022-09-07T01:40:56.829Z,35.83
2022-09-07T01:43:47.400Z,41.85
2022-09-07T01:46:54.138Z,43.58
2022-09-07T01:52:06.373Z,52.33
2022-09-07T01:54:45.692Z,46.20
2022-09-07T01:57:28.708Z,46.65
2022-09-07T02:00:14.782Z,36.97
2022-09-07T02:03:03.937Z,35.60
2022-09-07T02:05:43.329Z,26.25
2022-09-07T02:08:18.108Z,21.77
2022-09-07T02:11:04.666Z,19.70
2022-09-07T02:14:09.540Z,18.90
2022-09-07T02:16:59.008Z,14.50
2022-09-07T02:19:36.313Z,15.52
2022-09-07T02:22:14.582Z,13.85
2022-09-07T02:24:50.100Z,11.77
2022-09-07T02:27:34.420Z,11.20
2022-09-07T02:30:01.909Z,10.75
2022-09-07T02:32:29.330Z,10.30
2022-09-07T02:34:56.815Z,9.45
2022-09-07T02:37:27.424Z,11.35
2022-09-07T02:39:55.131Z,10.27
2022-09-07T02:42:22.553Z,11.60
2022-09-07T02:44:50.286Z,9.77
2022-09-07T02:48:20.082Z,10.38
2022-09-07T02:51:14.553Z,13.52
2022-09-07T02:54:15.920Z,11.23
2022-09-07T02:57:27.455Z,10.57
2022-09-07T03:00:25.964Z,21.35
2022-09-07T03:03:18.235Z,44.65
2022-09-07T03:06:03.765Z,64.55
2022-09-07T03:08:47.257Z,107.88
2022-09-07T03:11:15.373Z,95.95
2022-09-07T03:13:42.668Z,74.43
2022-09-07T03:16:15.761Z,70.68
2022-09-07T03:18:44.306Z,60.10
2022-09-07T03:21:11.614Z,55.33
2022-09-07T03:23:39.135Z,54.08
2022-09-07T03:26:06.482Z,48.90
2022-09-07T03:28:33.893Z,48.25
2022-09-07T03:31:02.867Z,39.15
2022-09-07T03:33:30.200Z,38.60
2022-09-07T03:36:02.516Z,30.33
2022-09-07T03:38:31.099Z,30.88
2022-09-07T03:41:05.834Z,25.88
2022-09-07T03:43:34.427Z,26.65
2022-09-07T03:46:05.965Z,21.42
2022-09-07T03:48:35.296Z,22.02
2022-09-07T03:51:10.053Z,16.55
2022-09-07T03:53:42.973Z,14.48
2022-09-07T03:56:22.686Z,13.38
2022-09-07T03:58:51.766Z,13.70
2022-09-07T04:01:24.662Z,13.60
2022-09-07T04:03:53.733Z,13.50
2022-09-07T04:06:21.161Z,11.60
2022-09-07T04:08:49.112Z,10.27
2022-09-07T04:11:19.586Z,10.45
2022-09-07T04:13:46.996Z,12.15
2022-09-07T04:16:23.431Z,12.30
2022-09-07T04:18:51.810Z,13.07
2022-09-07T04:21:19.257Z,10.73
2022-09-07T04:23:46.604Z,12.55
2022-09-07T04:26:30.399Z,10.95
2022-09-07T04:29:01.167Z,10.05
2022-09-07T04:31:28.673Z,10.82
2022-09-07T04:33:56.629Z,10.20
2022-09-07T04:36:27.294Z,9.52
2022-09-07T04:39:01.529Z,11.48
2022-09-07T04:41:31.592Z,10.23
2022-09-07T04:44:04.687Z,11.18
2022-09-07T04:46:35.893Z,10.65
2022-09-07T04:49:09.458Z,9.20
2022-09-07T04:51:39.767Z,9.05
2022-09-07T04:54:07.301Z,11.27
2022-09-07T04:56:35.220Z,12.57
2022-09-07T04:59:03.626Z,12.55
2022-09-07T05:01:31.295Z,10.63
2022-09-07T05:04:01.350Z,9.40
2022-09-07T05:06:28.995Z,12.23
2022-09-07T05:08:58.678Z,12.05
2022-09-07T05:11:29.525Z,10.80
2022-09-07T05:13:59.870Z,11.60
2022-09-07T05:16:28.550Z,10.23
2022-09-07T05:19:01.505Z,9.48
2022-09-07T05:21:33.188Z,13.43
2022-09-07T05:24:02.481Z,15.75
2022-09-07T05:26:33.915Z,12.52
2022-09-07T05:31:54.673Z,12.55
2022-09-07T05:34:29.988Z,13.18
2022-09-07T05:36:57.924Z,10.98
2022-09-07T05:39:25.904Z,11.23
2022-09-07T05:41:53.738Z,13.80
2022-09-07T05:47:09.166Z,12.20
2022-09-07T05:49:36.553Z,10.77
2022-09-07T05:52:04.077Z,14.70
2022-09-07T05:54:31.357Z,11.02
2022-09-07T05:56:58.939Z,11.07
2022-09-07T05:59:26.378Z,16.20
2022-09-07T06:01:53.884Z,13.45
2022-09-07T06:04:21.316Z,11.65
2022-09-07T06:07:17.657Z,14.60
2022-09-07T06:12:24.209Z,15.27
2022-09-07T06:14:51.397Z,24.45
2022-09-07T06:17:18.727Z,27.40
2022-09-07T06:19:46.025Z,37.13
2022-09-07T06:22:13.318Z,35.97
2022-09-07T06:24:40.529Z,44.17
2022-09-07T06:27:07.850Z,28.35
2022-09-07T06:29:35.810Z,28.25
2022-09-07T06:34:52.593Z,19.95
2022-09-07T06:37:20.078Z,15.85
2022-09-07T06:39:48.806Z,14.70
2022-09-07T06:42:16.862Z,14.88
2022-09-07T06:44:45.049Z,14.43
2022-09-07T06:47:12.852Z,17.02
2022-09-07T06:49:40.256Z,16.25
2022-09-07T06:52:07.653Z,14.88
2022-09-07T06:57:22.379Z,15.85
2022-09-07T06:59:49.886Z,16.05
2022-09-07T07:02:17.391Z,18.05
2022-09-07T07:04:46.492Z,12.30
2022-09-07T07:07:14.623Z,15.30
2022-09-07T07:09:42.583Z,19.63
2022-09-07T07:12:11.186Z,10.38
2022-09-07T07:14:43.931Z,9.55
2022-09-07T07:17:13.627Z,10.65
2022-09-07T07:19:40.994Z,14.05
2022-09-07T07:22:23.821Z,10.07
2022-09-07T07:24:56.003Z,9.85
2022-09-07T07:27:23.482Z,10.27
2022-09-07T07:29:52.379Z,8.25
2022-09-07T07:32:20.060Z,9.52
2022-09-07T07:34:47.533Z,11.63
2022-09-07T07:37:16.162Z,11.85
2022-09-07T07:42:36.296Z,11.15
2022-09-07T07:47:53.158Z,13.13
2022-09-07T07:50:36.259Z,14.52
2022-09-07T07:55:53.198Z,16.85
2022-09-07T07:58:21.013Z,17.58
2022-09-07T08:00:54.608Z,19.05
2022-09-07T08:03:24.559Z,20.20
2022-09-07T08:05:52.371Z,19.55
2022-09-07T08:08:20.600Z,17.50
2022-09-07T08:10:48.178Z,21.67
2022-09-07T08:13:20.513Z,22.42
2022-09-07T08:15:48.376Z,25.33
2022-09-07T08:18:17.484Z,19.88
2022-09-07T08:20:45.209Z,21.75
2022-09-07T08:23:12.715Z,20.33
2022-09-07T08:25:54.608Z,23.30
2022-09-07T08:28:24.772Z,19.80
2022-09-07T08:30:53.091Z,24.13
2022-09-07T08:33:20.941Z,23.92
2022-09-07T08:36:07.233Z,26.30
2022-09-07T08:38:36.663Z,21.58
2022-09-07T08:41:49.984Z,23.10
2022-09-07T08:44:47.277Z,25.95
2022-09-07T08:47:33.352Z,25.42
2022-09-07T08:50:23.202Z,27.27
2022-09-07T08:53:13.523Z,23.65
2022-09-07T08:55:55.917Z,24.40
2022-09-07T08:58:49.757Z,25.52
2022-09-07T09:01:41.125Z,21.98
2022-09-07T09:04:29.536Z,27.50
2022-09-07T09:07:36.274Z,21.55
2022-09-07T09:10:28.816Z,23.75
2022-09-07T09:13:58.597Z,22.38
2022-09-07T09:16:44.089Z,18.85
2022-09-07T09:19:45.001Z,21.13
2022-09-07T09:22:19.723Z,25.15
2022-09-07T09:24:53.665Z,20.50
2022-09-07T09:27:20.857Z,21.23
2022-09-07T09:29:47.978Z,19.88
2022-09-07T09:32:41.612Z,18.95
2022-09-07T09:35:39.965Z,19.27
2022-09-07T09:38:36.661Z,20.33
2022-09-07T09:41:10.528Z,22.25
2022-09-07T09:43:58.143Z,18.83
2022-09-07T09:46:35.715Z,20.50
2022-09-07T09:49:19.893Z,20.50
2022-09-07T09:54:43.708Z,23.10
2022-09-07T10:01:22.359Z,21.15
2022-09-07T10:06:21.617Z,22.70
2022-09-07T10:09:02.284Z,26.58
2022-09-07T10:12:06.656Z,21.80
2022-09-07T10:14:45.737Z,28.88
2022-09-07T10:17:32.408Z,22.63
2022-09-07T10:20:22.254Z,22.85
2022-09-07T10:22:52.324Z,23.67
2022-09-07T10:25:45.446Z,20.55
2022-09-07T10:28:21.462Z,21.50
2022-09-07T10:31:32.477Z,23.42
2022-09-07T10:34:40.483Z,27.00
2022-09-07T10:37:12.037Z,28.20
2022-09-07T10:40:37.965Z,31.58
2022-09-07T10:43:41.288Z,26.90
2022-09-07T10:47:01.439Z,21.08
2022-09-07T10:53:40.576Z,21.85
2022-09-07T10:56:33.457Z,21.02
2022-09-07T11:00:11.486Z,24.52
2022-09-07T11:03:32.820Z,20.85
2022-09-07T11:06:26.204Z,21.05
2022-09-07T11:09:40.786Z,20.98
2022-09-07T11:12:28.153Z,22.98
2022-09-07T11:15:13.741Z,18.25
2022-09-07T11:20:32.334Z,19.55
2022-09-07T11:23:12.020Z,17.27
2022-09-07T11:26:26.757Z,18.45
2022-09-07T11:29:31.114Z,17.02
2022-09-07T11:32:17.608Z,17.92
2022-09-07T11:35:02.117Z,14.77
2022-09-07T11:37:59.094Z,14.23
2022-09-07T11:41:02.621Z,14.57
2022-09-07T11:43:42.019Z,19.05
2022-09-07T11:46:43.694Z,12.52
2022-09-07T11:49:25.937Z,14.57
2022-09-07T11:52:09.290Z,19.58
2022-09-07T11:54:59.092Z,15.25
2022-09-07T11:57:56.583Z,17.45
2022-09-07T12:00:41.503Z,19.05
2022-09-07T12:04:02.755Z,19.42
2022-09-07T12:06:56.840Z,16.63
2022-09-07T12:10:16.976Z,21.70
2022-09-07T12:13:23.865Z,25.25
2022-09-07T12:16:19.329Z,19.98
2022-09-07T12:19:24.538Z,21.27
2022-09-07T12:21:51.565Z,19.50
2022-09-07T12:24:51.644Z,19.00
2022-09-07T12:27:21.892Z,21.38
2022-09-07T12:30:02.546Z,20.35
2022-09-07T12:32:56.590Z,18.30
2022-09-07T12:35:37.110Z,15.55
2022-09-07T12:38:31.136Z,16.02
2022-09-07T12:41:00.158Z,18.58
2022-09-07T12:43:48.523Z,20.67
2022-09-07T12:46:38.774Z,22.42
2022-09-07T12:49:45.798Z,19.27
2022-09-07T12:52:42.471Z,23.48
2022-09-07T12:55:29.533Z,26.27
2022-09-07T12:58:14.137Z,23.30
2022-09-07T13:01:12.569Z,24.98
2022-09-07T13:04:50.122Z,24.05
2022-09-07T13:08:11.290Z,22.77
2022-09-07T13:10:43.957Z,22.67
2022-09-07T13:16:17.665Z,25.73
2022-09-07T13:18:46.383Z,24.77
2022-09-07T13:21:14.913Z,23.70
2022-09-07T13:27:41.607Z,28.15
2022-09-07T13:30:50.334Z,27.63
2022-09-07T13:33:29.863Z,25.77
2022-09-07T13:36:05.565Z,24.55
2022-09-07T13:38:36.355Z,23.88
2022-09-07T13:41:42.321Z,30.05
2022-09-07T13:44:26.138Z,29.90
2022-09-07T13:47:37.852Z,25.75
2022-09-07T13:50:47.196Z,27.40
2022-09-07T13:53:34.440Z,24.15
2022-09-07T13:56:14.465Z,26.45
2022-09-07T13:58:50.028Z,22.25
2022-09-07T14:01:27.694Z,19.42
2022-09-07T14:04:07.418Z,23.10
2022-09-07T14:06:38.001Z,22.10
2022-09-07T14:09:16.465Z,20.50
2022-09-07T14:11:54.286Z,20.88
2022-09-07T14:14:27.552Z,21.02
2022-09-07T14:17:04.803Z,20.17
2022-09-07T14:19:39.852Z,19.02
2022-09-07T14:22:20.736Z,23.48
2022-09-07T14:25:01.406Z,20.15
2022-09-07T14:27:44.885Z,21.95
2022-09-07T14:30:31.977Z,21.08
2022-09-07T14:33:22.072Z,20.70
2022-09-07T14:35:49.716Z,19.90
2022-09-07T14:41:19.001Z,16.77
2022-09-07T14:43:58.611Z,18.05
2022-09-07T14:46:34.370Z,15.75
2022-09-07T14:49:21.546Z,13.48
2022-09-07T14:51:49.619Z,14.50
2022-09-07T14:54:37.235Z,14.15
2022-09-07T14:57:13.149Z,13.88
2022-09-07T14:59:46.713Z,16.15
2022-09-07T15:02:21.972Z,17.20
2022-09-07T15:05:25.779Z,15.73
2022-09-07T15:07:58.547Z,12.98
2022-09-07T15:10:28.970Z,13.23
2022-09-07T15:12:59.783Z,12.68
2022-09-07T15:15:37.434Z,13.65
2022-09-07T15:19:18.401Z,15.02
2022-09-07T15:21:46.021Z,16.63
2022-09-07T15:24:13.620Z,16.45
2022-09-07T15:27:03.362Z,12.50
2022-09-07T15:29:31.759Z,16.33
2022-09-07T15:32:04.293Z,15.68
2022-09-07T15:34:33.425Z,16.63
2022-09-07T15:37:03.685Z,13.20
2022-09-07T15:39:31.715Z,11.48
2022-09-07T15:42:58.794Z,16.65
2022-09-07T15:44:46.262Z,14.98
2022-09-07T15:50:00.594Z,16.33
2022-09-07T15:52:28.118Z,17.23
2022-09-07T15:54:59.414Z,17.25
2022-09-07T16:00:15.049Z,12.75
2022-09-07T16:05:31.411Z,15.60
2022-09-07T16:10:55.777Z,13.15
2022-09-07T16:13:31.727Z,15.40
2022-09-07T16:15:59.942Z,16.50
2022-09-07T16:18:31.227Z,15.50
2022-09-07T16:21:11.954Z,13.38
2022-09-07T16:23:44.072Z,10.68
2022-09-07T16:26:12.681Z,13.50
2022-09-07T16:28:47.116Z,13.98
2022-09-07T16:31:34.389Z,12.70
2022-09-07T16:34:04.815Z,11.23
2022-09-07T16:36:32.077Z,19.02
2022-09-07T16:39:00.996Z,14.73
2022-09-07T16:41:33.218Z,13.15
2022-09-07T16:44:00.459Z,17.55
2022-09-07T16:46:35.275Z,13.05
2022-09-07T16:49:03.121Z,12.35
2022-09-07T16:51:30.299Z,13.60
2022-09-07T16:53:58.947Z,13.98
2022-09-07T16:56:30.218Z,18.27
2022-09-07T16:59:04.508Z,17.92
2022-09-07T17:01:35.543Z,11.80
2022-09-07T17:04:08.203Z,14.82
2022-09-07T17:06:40.129Z,13.18
2022-09-07T17:09:07.925Z,17.67
2022-09-07T17:11:37.016Z,22.05
2022-09-07T17:14:08.369Z,16.27
2022-09-07T17:16:39.655Z,16.73
2022-09-07T17:21:59.659Z,15.70
2022-09-07T17:24:27.107Z,13.30
2022-09-07T17:26:54.591Z,18.65
2022-09-07T17:29:21.888Z,15.75
2022-09-07T17:34:37.553Z,18.50
2022-09-07T17:37:04.999Z,16.95
2022-09-07T17:39:32.375Z,19.27
2022-09-07T17:42:00.926Z,18.13
2022-09-07T17:44:33.268Z,18.90
2022-09-07T17:47:03.475Z,21.27
2022-09-07T17:49:30.941Z,11.18
2022-09-07T17:51:59.853Z,16.63
2022-09-07T17:54:27.816Z,15.48
2022-09-07T17:56:55.385Z,13.88
2022-09-07T18:02:15.364Z,14.18
2022-09-07T18:04:42.949Z,18.83
2022-09-07T18:07:10.435Z,15.15
2022-09-07T18:09:37.712Z,19.55
2022-09-07T18:12:05.394Z,14.32
2022-09-07T18:14:32.857Z,15.60
2022-09-07T18:17:00.344Z,17.50
2022-09-07T18:19:28.408Z,17.05
2022-09-07T18:21:55.722Z,15.68
2022-09-07T18:24:24.530Z,14.20
2022-09-07T18:26:55.112Z,20.63
2022-09-07T18:29:34.351Z,20.05
2022-09-07T18:32:08.535Z,20.17
2022-09-07T18:34:40.589Z,20.00
2022-09-07T18:37:09.294Z,20.80
2022-09-07T18:39:36.756Z,17.73
2022-09-07T18:42:04.257Z,18.73
2022-09-07T18:47:27.509Z,20.55
2022-09-07T18:49:56.052Z,16.40
2022-09-07T18:55:11.802Z,18.70
2022-09-07T18:57:39.324Z,19.30
2022-09-07T19:00:09.509Z,19.05
2022-09-07T19:02:37.258Z,17.48
2022-09-07T19:07:52.756Z,26.38
2022-09-07T19:10:20.204Z,18.20
2022-09-07T19:12:47.603Z,20.63
2022-09-07T19:15:15.589Z,19.27
2022-09-07T19:17:42.891Z,21.08
2022-09-07T19:20:10.602Z,20.73
2022-09-07T19:22:38.068Z,21.23
2022-09-07T19:25:06.266Z,20.55
2022-09-07T19:27:33.887Z,24.90
2022-09-07T19:30:02.922Z,22.73
2022-09-07T19:32:33.230Z,23.77
2022-09-07T19:35:00.495Z,27.70
2022-09-07T19:37:29.798Z,23.15
2022-09-07T19:39:57.012Z,23.48
2022-09-07T19:42:25.838Z,22.10
2022-09-07T19:44:55.178Z,26.45
2022-09-07T19:47:25.287Z,26.73
2022-09-07T19:49:54.026Z,22.70
2022-09-07T19:52:21.212Z,29.15
2022-09-07T19:54:50.246Z,20.35
2022-09-07T19:57:17.808Z,24.88
2022-09-07T19:59:47.199Z,21.00
2022-09-07T20:02:15.015Z,18.15
2022-09-07T20:04:43.341Z,22.35
2022-09-07T20:07:11.963Z,19.95
2022-09-07T20:09:44.324Z,24.92
2022-09-07T20:12:12.667Z,21.50
2022-09-07T20:14:42.598Z,23.95
2022-09-07T20:17:12.531Z,17.13
2022-09-07T20:19:40.300Z,24.08
2022-09-07T20:22:08.762Z,22.92
2022-09-07T20:24:35.984Z,19.17
2022-09-07T20:27:09.036Z,22.90
2022-09-07T20:29:44.273Z,21.52
2022-09-07T20:32:11.723Z,20.60
2022-09-07T20:34:39.791Z,20.95
2022-09-07T20:37:07.565Z,23.77
2022-09-07T20:39:39.108Z,24.27
2022-09-07T20:42:08.111Z,22.00
2022-09-07T20:44:37.074Z,23.20
2022-09-07T20:47:06.160Z,22.02
2022-09-07T20:49:33.872Z,20.58
2022-09-07T20:52:01.425Z,24.63
2022-09-07T20:54:28.744Z,27.25
2022-09-07T20:56:56.165Z,28.33
2022-09-07T20:59:24.085Z,21.73
2022-09-07T21:01:52.058Z,28.45
2022-09-07T21:04:19.391Z,28.92
2022-09-07T21:06:47.050Z,21.63
2022-09-07T21:09:14.628Z,27.80
2022-09-07T21:11:45.026Z,24.02
2022-09-07T21:14:14.637Z,26.55
2022-09-07T21:16:42.729Z,25.77
2022-09-07T21:19:11.146Z,25.02
2022-09-07T21:21:42.723Z,24.98
2022-09-07T21:24:30.244Z,22.45
2022-09-07T21:26:57.377Z,21.73
2022-09-07T21:29:25.642Z,23.17
2022-09-07T21:31:54.651Z,20.95
2022-09-07T21:34:22.997Z,22.85
2022-09-07T21:36:50.917Z,22.17
2022-09-07T21:39:19.189Z,21.45
2022-09-07T21:41:46.634Z,20.77
2022-09-07T21:44:16.124Z,22.20
2022-09-07T21:46:45.570Z,20.65
2022-09-07T21:49:13.537Z,25.80
2022-09-07T21:51:41.233Z,23.15
2022-09-07T21:54:09.240Z,21.30
2022-09-07T21:56:36.905Z,25.67
2022-09-07T21:59:06.191Z,22.45
2022-09-07T22:01:33.842Z,23.65
2022-09-07T22:04:04.919Z,21.40
2022-09-07T22:06:33.675Z,23.23
2022-09-07T22:09:02.535Z,22.52
2022-09-07T22:11:30.458Z,23.92
2022-09-07T22:14:02.698Z,21.75
2022-09-07T22:16:33.986Z,22.08
2022-09-07T22:19:01.683Z,26.80
2022-09-07T22:21:30.678Z,20.30
2022-09-07T22:24:05.194Z,22.35
2022-09-07T22:26:39.486Z,20.20
2022-09-07T22:29:11.184Z,23.17
2022-09-07T22:31:39.856Z,23.63
2022-09-07T22:34:09.334Z,24.65
2022-09-07T22:36:44.913Z,31.23
2022-09-07T22:39:17.739Z,21.67
2022-09-07T22:41:47.187Z,22.85
2022-09-07T22:44:18.029Z,23.88
2022-09-07T22:46:47.411Z,20.30
2022-09-07T22:49:16.853Z,18.65
2022-09-07T22:51:44.773Z,23.75
2022-09-07T22:54:12.245Z,23.70
2022-09-07T22:56:40.439Z,22.38
2022-09-07T22:59:10.304Z,22.20
2022-09-07T23:01:38.947Z,24.77
2022-09-07T23:04:07.751Z,25.67
2022-09-07T23:06:39.399Z,20.80
2022-09-07T23:09:17.301Z,24.38
2022-09-07T23:11:47.048Z,22.92
2022-09-07T23:14:20.026Z,23.05
2022-09-07T23:16:48.260Z,23.95
2022-09-07T23:19:19.523Z,20.65
2022-09-07T23:21:47.603Z,19.63
2022-09-07T23:24:18.124Z,21.83
2022-09-07T23:26:46.852Z,17.98
2022-09-07T23:29:16.255Z,22.58
2022-09-07T23:31:45.672Z,18.13
2022-09-07T23:34:15.751Z,19.10
2022-09-07T23:36:45.787Z,17.48
2022-09-07T23:39:13.248Z,18.30
2022-09-07T23:41:40.439Z,17.80
2022-09-07T23:44:08.786Z,23.00
2022-09-07T23:46:36.368Z,20.63
2022-09-07T23:49:03.805Z,20.63
2022-09-07T23:51:31.298Z,18.98
2022-09-07T23:53:58.681Z,17.25
2022-09-07T23:56:50.965Z,19.63
2022-09-07T23:59:18.409Z,17.67
